createdAt,value
2019-04-16T00:01:06.832Z,41.81
2019-04-16T00:03:36.068Z,41.86
2019-04-16T00:06:10.437Z,41.89
2019-04-16T00:08:46.952Z,41.94
2019-04-16T00:11:25.193Z,41.99
2019-04-16T00:14:02.962Z,42.04
2019-04-16T00:16:30.041Z,42.11
2019-04-16T00:19:01.063Z,42.17
2019-04-16T00:21:48.992Z,42.23
2019-04-16T00:24:30.869Z,42.31
2019-04-16T00:26:59.888Z,42.37
2019-04-16T00:29:32.703Z,42.43
2019-04-16T00:32:00.670Z,42.49
2019-04-16T00:34:28.029Z,42.51
2019-04-16T00:36:55.686Z,42.52
2019-04-16T00:39:24.836Z,42.59
2019-04-16T00:41:52.702Z,42.61
2019-04-16T00:44:20.071Z,42.67
2019-04-16T00:46:47.615Z,42.72
2019-04-16T00:49:15.230Z,42.77
2019-04-16T00:51:42.765Z,42.83
2019-04-16T00:54:12.820Z,42.87
2019-04-16T00:56:40.534Z,42.93
2019-04-16T00:59:11.660Z,42.97
2019-04-16T01:01:39.527Z,42.99
2019-04-16T01:04:07.132Z,43.03
2019-04-16T01:06:34.811Z,43.08
2019-04-16T01:09:03.900Z,43.13
2019-04-16T01:11:33.173Z,43.17
2019-04-16T01:14:00.928Z,43.21
2019-04-16T01:16:30.281Z,43.23
2019-04-16T01:18:57.674Z,43.26
2019-04-16T01:21:25.508Z,43.24
2019-04-16T01:23:53.228Z,43.28
2019-04-16T01:26:20.636Z,43.30
2019-04-16T01:29:03.699Z,43.30
2019-04-16T01:31:45.038Z,43.32
2019-04-16T01:34:32.720Z,43.31
2019-04-16T01:37:12.546Z,43.32
2019-04-16T01:39:40.803Z,43.36
2019-04-16T01:42:10.471Z,43.39
2019-04-16T01:44:37.963Z,43.40
2019-04-16T01:47:05.597Z,43.43
2019-04-16T01:49:32.950Z,43.43
2019-04-16T01:52:00.367Z,43.47
2019-04-16T01:54:34.324Z,43.48
2019-04-16T01:57:08.500Z,43.48
2019-04-16T01:59:36.468Z,43.47
2019-04-16T02:02:04.290Z,43.51
2019-04-16T02:04:32.661Z,43.58
2019-04-16T02:07:00.088Z,43.62
2019-04-16T02:09:27.456Z,43.70
2019-04-16T02:11:55.050Z,43.74
2019-04-16T02:14:22.615Z,43.78
2019-04-16T02:16:55.685Z,43.78
2019-04-16T02:19:20.824Z,43.84
2019-04-16T02:21:48.349Z,43.87
2019-04-16T02:24:18.537Z,43.92
2019-04-16T02:26:45.312Z,43.95
2019-04-16T02:29:13.303Z,43.99
2019-04-16T02:31:40.925Z,44.05
2019-04-16T02:34:08.758Z,44.12
2019-04-16T02:36:36.254Z,44.13
2019-04-16T02:39:07.690Z,44.18
2019-04-16T02:41:35.777Z,44.22
2019-04-16T02:44:04.726Z,44.27
2019-04-16T02:46:39.616Z,44.31
2019-04-16T02:49:07.134Z,44.34
2019-04-16T02:51:55.389Z,44.38
2019-04-16T02:54:45.664Z,44.41
2019-04-16T02:57:38.775Z,44.43
2019-04-16T03:00:18.540Z,44.41
2019-04-16T03:02:54.616Z,44.41
2019-04-16T03:05:26.561Z,44.48
2019-04-16T03:07:55.630Z,44.51
2019-04-16T03:10:24.081Z,44.55
2019-04-16T03:12:52.901Z,44.57
2019-04-16T03:15:49.106Z,44.59
2019-04-16T03:18:18.705Z,44.61
2019-04-16T03:20:46.152Z,44.66
2019-04-16T03:23:13.597Z,44.68
2019-04-16T03:25:44.132Z,44.69
2019-04-16T03:28:11.042Z,44.75
2019-04-16T03:30:42.175Z,44.84
2019-04-16T03:33:12.711Z,44.88
2019-04-16T03:35:37.200Z,44.93
2019-04-16T03:38:06.187Z,44.95
2019-04-16T03:40:33.808Z,45.01
2019-04-16T03:43:04.011Z,45.05
2019-04-16T03:45:30.690Z,45.08
2019-04-16T03:47:58.128Z,45.11
2019-04-16T03:50:28.279Z,45.13
2019-04-16T03:52:55.237Z,45.14
2019-04-16T03:55:26.309Z,45.22
2019-04-16T03:57:52.572Z,45.29
2019-04-16T04:00:20.760Z,45.33
2019-04-16T04:02:48.539Z,45.37
2019-04-16T04:05:15.956Z,45.41
2019-04-16T04:07:44.118Z,45.44
2019-04-16T04:10:13.904Z,45.48
2019-04-16T04:12:51.434Z,45.53
2019-04-16T04:15:19.295Z,45.56
2019-04-16T04:17:47.297Z,45.57
2019-04-16T04:20:18.136Z,45.63
2019-04-16T04:22:44.946Z,45.68
2019-04-16T04:25:18.134Z,45.69
2019-04-16T04:27:46.791Z,45.69
2019-04-16T04:30:16.903Z,45.70
2019-04-16T04:32:47.367Z,45.74
2019-04-16T04:35:13.696Z,45.76
2019-04-16T04:37:41.150Z,45.78
2019-04-16T04:40:12.953Z,45.86
2019-04-16T04:42:41.166Z,45.91
2019-04-16T04:45:10.572Z,45.94
2019-04-16T04:47:38.628Z,46.03
2019-04-16T04:50:07.206Z,46.08
2019-04-16T04:52:34.888Z,46.11
2019-04-16T04:55:02.623Z,46.13
2019-04-16T04:57:31.135Z,46.19
2019-04-16T04:59:59.378Z,46.22
2019-04-16T05:02:27.043Z,46.22
2019-04-16T05:05:16.419Z,46.22
2019-04-16T05:07:43.892Z,46.25
2019-04-16T05:10:12.093Z,46.25
2019-04-16T05:12:39.488Z,46.29
2019-04-16T05:15:07.800Z,46.32
2019-04-16T05:17:35.453Z,46.39
2019-04-16T05:20:05.443Z,46.42
2019-04-16T05:22:33.262Z,46.49
2019-04-16T05:25:02.341Z,46.53
2019-04-16T05:27:29.881Z,46.57
2019-04-16T05:29:57.900Z,46.61
2019-04-16T05:32:25.976Z,46.65
2019-04-16T05:34:53.858Z,46.67
2019-04-16T05:37:21.384Z,46.68
2019-04-16T05:39:48.962Z,46.71
2019-04-16T05:42:16.359Z,46.72
2019-04-16T05:44:44.137Z,46.75
2019-04-16T05:47:16.870Z,46.78
2019-04-16T05:49:41.294Z,46.80
2019-04-16T05:52:08.694Z,46.80
2019-04-16T05:55:01.220Z,46.83
2019-04-16T05:57:30.525Z,46.82
2019-04-16T05:59:58.004Z,46.81
2019-04-16T06:02:36.850Z,46.86
2019-04-16T06:05:04.932Z,46.86
2019-04-16T06:07:32.342Z,46.86
2019-04-16T06:09:59.936Z,46.89
2019-04-16T06:12:39.602Z,46.92
2019-04-16T06:15:26.438Z,46.94
2019-04-16T06:18:37.069Z,46.93
2019-04-16T06:21:22.608Z,46.94
2019-04-16T06:24:03.054Z,46.94
2019-04-16T06:26:44.502Z,46.97
2019-04-16T06:29:20.608Z,46.97
2019-04-16T06:31:58.826Z,47.00
2019-04-16T06:34:45.910Z,47.02
2019-04-16T06:37:21.595Z,47.00
2019-04-16T06:40:04.521Z,47.00
2019-04-16T06:42:38.368Z,46.99
2019-04-16T06:45:15.789Z,46.97
2019-04-16T06:48:14.821Z,46.97
2019-04-16T06:51:20.179Z,46.90
2019-04-16T06:54:19.219Z,46.86
2019-04-16T06:56:58.285Z,46.81
2019-04-16T06:59:31.835Z,46.77
2019-04-16T07:02:28.053Z,46.75
2019-04-16T07:05:10.160Z,46.74
2019-04-16T07:07:56.027Z,46.70
2019-04-16T07:10:28.641Z,46.67
2019-04-16T07:12:56.155Z,46.58
2019-04-16T07:15:27.858Z,46.54
2019-04-16T07:17:53.424Z,46.48
2019-04-16T07:20:20.948Z,46.44
2019-04-16T07:22:52.737Z,46.35
2019-04-16T07:25:18.573Z,46.26
2019-04-16T07:27:58.045Z,46.18
2019-04-16T07:30:35.519Z,46.10
2019-04-16T07:33:12.379Z,46.03
2019-04-16T07:36:08.341Z,45.95
2019-04-16T07:38:59.503Z,45.89
2019-04-16T07:41:47.350Z,45.76
2019-04-16T07:44:20.146Z,45.64
2019-04-16T07:46:57.602Z,45.52
2019-04-16T07:49:47.782Z,45.51
2019-04-16T07:52:21.229Z,45.42
2019-04-16T07:55:06.989Z,45.30
2019-04-16T07:57:34.544Z,45.19
2019-04-16T08:00:08.210Z,45.05
2019-04-16T08:02:32.506Z,44.90
2019-04-16T08:04:59.965Z,44.72
2019-04-16T08:07:27.762Z,44.62
2019-04-16T08:09:55.183Z,44.55
2019-04-16T08:12:30.429Z,44.45
2019-04-16T08:14:51.906Z,44.30
2019-04-16T08:17:19.791Z,44.16
2019-04-16T08:19:49.059Z,44.02
2019-04-16T08:22:16.728Z,43.74
2019-04-16T08:24:49.658Z,43.52
2019-04-16T08:27:19.042Z,43.21
2019-04-16T08:29:46.360Z,42.82
2019-04-16T08:32:15.981Z,42.43
2019-04-16T08:34:43.966Z,42.15
2019-04-16T08:37:12.505Z,41.82
2019-04-16T08:39:40.575Z,41.47
2019-04-16T08:42:08.215Z,41.16
2019-04-16T08:44:36.471Z,40.94
2019-04-16T08:47:04.000Z,40.73
2019-04-16T08:49:31.497Z,40.52
2019-04-16T08:51:59.241Z,40.40
2019-04-16T08:54:26.753Z,40.40
2019-04-16T08:56:54.201Z,40.20
2019-04-16T08:59:21.600Z,39.97
2019-04-16T09:02:08.754Z,39.75
2019-04-16T09:04:36.175Z,39.43
2019-04-16T09:07:11.123Z,39.15
2019-04-16T09:09:57.131Z,38.82
2019-04-16T09:12:22.830Z,38.56
2019-04-16T09:14:55.987Z,38.41
2019-04-16T09:17:23.806Z,38.19
2019-04-16T09:20:08.565Z,38.14
2019-04-16T09:22:48.096Z,38.01
2019-04-16T09:25:14.234Z,37.95
2019-04-16T09:27:44.286Z,37.83
2019-04-16T09:30:42.393Z,37.61
2019-04-16T09:33:24.382Z,37.22
2019-04-16T09:36:11.487Z,37.08
2019-04-16T09:38:47.254Z,36.97
2019-04-16T09:41:24.916Z,36.96
2019-04-16T09:43:57.170Z,36.78
2019-04-16T09:46:49.170Z,36.62
2019-04-16T09:48:53.008Z,36.58
2019-04-16T09:51:21.597Z,36.65
2019-04-16T09:53:49.238Z,36.57
2019-04-16T09:56:29.021Z,36.43
2019-04-16T09:59:05.999Z,36.39
2019-04-16T10:01:42.162Z,36.37
2019-04-16T10:04:12.027Z,36.29
2019-04-16T10:06:42.560Z,36.71
2019-04-16T10:09:10.290Z,37.06
2019-04-16T10:11:37.818Z,37.11
2019-04-16T10:14:05.822Z,36.83
2019-04-16T10:16:33.529Z,36.72
2019-04-16T10:19:01.152Z,36.48
2019-04-16T10:21:29.381Z,36.33
2019-04-16T10:24:29.246Z,35.87
2019-04-16T10:26:59.920Z,35.64
2019-04-16T10:29:27.325Z,35.50
2019-04-16T10:31:55.132Z,35.62
2019-04-16T10:34:22.730Z,35.43
2019-04-16T10:36:50.410Z,35.62
2019-04-16T10:39:36.326Z,35.63
2019-04-16T10:42:22.575Z,35.34
2019-04-16T10:45:11.965Z,34.91
2019-04-16T10:48:14.185Z,34.71
2019-04-16T10:50:59.787Z,34.40
2019-04-16T10:53:43.466Z,34.00
2019-04-16T10:56:30.284Z,33.68
2019-04-16T10:59:16.174Z,33.88
2019-04-16T11:01:49.267Z,33.93
2019-04-16T11:04:23.163Z,33.78
2019-04-16T11:06:51.473Z,33.51
2019-04-16T11:09:19.084Z,33.19
2019-04-16T11:11:46.807Z,32.97
2019-04-16T11:14:17.181Z,32.78
2019-04-16T11:16:48.777Z,32.39
2019-04-16T11:19:16.298Z,32.30
2019-04-16T11:21:44.326Z,32.15
2019-04-16T11:24:12.013Z,31.98
2019-04-16T11:26:40.203Z,31.81
2019-04-16T11:29:07.845Z,31.71
2019-04-16T11:31:35.693Z,31.73
2019-04-16T11:34:06.527Z,31.59
2019-04-16T11:36:35.316Z,31.60
2019-04-16T11:39:05.429Z,31.57
2019-04-16T11:41:33.482Z,31.21
2019-04-16T11:44:14.195Z,30.89
2019-04-16T11:46:30.688Z,31.17
2019-04-16T11:48:58.184Z,31.36
2019-04-16T11:51:25.706Z,31.38
2019-04-16T11:53:53.216Z,31.45
2019-04-16T11:56:22.527Z,31.34
2019-04-16T11:58:50.260Z,31.24
2019-04-16T12:01:40.446Z,31.17
2019-04-16T12:04:34.217Z,30.96
2019-04-16T12:07:10.029Z,31.05
2019-04-16T12:09:56.051Z,30.97
2019-04-16T12:12:27.880Z,31.05
2019-04-16T12:15:07.892Z,31.02
2019-04-16T12:17:53.806Z,31.01
2019-04-16T12:20:40.966Z,30.95
2019-04-16T12:23:30.791Z,30.98
2019-04-16T12:26:18.874Z,30.90
2019-04-16T12:29:02.090Z,30.88
2019-04-16T12:31:41.596Z,30.92
2019-04-16T12:34:34.709Z,30.81
2019-04-16T12:37:21.776Z,30.64
2019-04-16T12:40:07.189Z,30.60
2019-04-16T12:42:42.204Z,30.67
2019-04-16T12:45:29.648Z,30.65
2019-04-16T12:48:02.245Z,30.57
2019-04-16T12:50:47.584Z,30.56
2019-04-16T12:53:53.045Z,30.48
2019-04-16T12:56:40.101Z,30.41
2019-04-16T12:59:11.864Z,30.41
2019-04-16T13:01:58.079Z,30.25
2019-04-16T13:04:48.727Z,29.98
2019-04-16T13:07:22.646Z,30.10
2019-04-16T13:10:04.342Z,30.18
2019-04-16T13:12:50.131Z,30.27
2019-04-16T13:15:26.630Z,30.29
2019-04-16T13:18:24.435Z,30.16
2019-04-16T13:21:10.195Z,30.11
2019-04-16T13:23:41.226Z,29.99
2019-04-16T13:26:27.410Z,29.90
2019-04-16T13:28:56.154Z,29.87
2019-04-16T13:31:24.023Z,29.86
2019-04-16T13:33:51.481Z,29.90
2019-04-16T13:36:19.499Z,29.91
2019-04-16T13:38:52.650Z,29.85
2019-04-16T13:41:20.165Z,29.94
2019-04-16T13:43:51.782Z,29.98
2019-04-16T13:46:19.398Z,30.00
2019-04-16T13:49:05.276Z,30.06
2019-04-16T13:51:33.241Z,30.15
2019-04-16T13:54:20.551Z,30.32
2019-04-16T13:56:53.392Z,30.32
2019-04-16T13:59:46.395Z,30.35
2019-04-16T14:02:29.088Z,30.25
2019-04-16T14:05:03.050Z,30.19
2019-04-16T14:07:27.946Z,30.17
2019-04-16T14:09:55.278Z,30.10
2019-04-16T14:12:33.862Z,30.14
2019-04-16T14:14:52.512Z,30.19
2019-04-16T14:17:23.577Z,30.15
2019-04-16T14:19:50.942Z,30.09
2019-04-16T14:22:21.635Z,30.04
2019-04-16T14:24:47.760Z,30.05
2019-04-16T14:27:15.272Z,30.14
2019-04-16T14:29:42.758Z,30.34
2019-04-16T14:32:10.549Z,30.46
2019-04-16T14:34:44.548Z,30.47
2019-04-16T14:37:12.100Z,30.48
2019-04-16T14:39:43.249Z,30.52
2019-04-16T14:42:10.903Z,30.57
2019-04-16T14:44:46.986Z,30.64
2019-04-16T14:47:15.116Z,30.74
2019-04-16T14:49:42.613Z,30.81
2019-04-16T14:52:10.015Z,30.87
2019-04-16T14:54:46.114Z,30.95
2019-04-16T14:57:13.553Z,31.08
2019-04-16T14:59:51.711Z,31.16
2019-04-16T15:02:33.376Z,31.23
2019-04-16T15:05:25.556Z,31.23
2019-04-16T15:08:18.237Z,31.39
2019-04-16T15:11:10.163Z,31.47
2019-04-16T15:13:43.352Z,31.66
2019-04-16T15:16:29.186Z,31.77
2019-04-16T15:19:15.052Z,31.91
2019-04-16T15:22:00.666Z,32.01
2019-04-16T15:24:39.926Z,32.06
2019-04-16T15:27:31.522Z,32.12
2019-04-16T15:30:05.233Z,32.21
2019-04-16T15:33:06.761Z,32.39
2019-04-16T15:35:38.165Z,32.63
2019-04-16T15:38:29.611Z,32.80
2019-04-16T15:41:12.096Z,32.86
2019-04-16T15:43:57.824Z,32.88
2019-04-16T15:46:45.566Z,32.99
2019-04-16T15:49:19.431Z,33.09
2019-04-16T15:51:58.822Z,33.16
2019-04-16T15:54:45.910Z,33.23
2019-04-16T15:57:38.294Z,33.28
2019-04-16T16:00:17.619Z,33.43
2019-04-16T16:03:13.842Z,33.56
2019-04-16T16:05:45.235Z,33.71
2019-04-16T16:08:41.333Z,33.82
2019-04-16T16:11:17.186Z,33.98
2019-04-16T16:13:45.007Z,34.00
2019-04-16T16:16:17.658Z,34.11
2019-04-16T16:18:43.847Z,34.21
2019-04-16T16:21:11.485Z,34.30
2019-04-16T16:23:38.940Z,34.43
2019-04-16T16:26:06.672Z,34.56
2019-04-16T16:28:34.043Z,34.64
2019-04-16T16:31:01.560Z,34.70
2019-04-16T16:33:30.019Z,34.75
2019-04-16T16:35:59.834Z,34.88
2019-04-16T16:38:27.529Z,34.99
2019-04-16T16:40:55.180Z,35.07
2019-04-16T16:43:22.580Z,35.11
2019-04-16T16:46:21.674Z,35.19
2019-04-16T16:48:51.014Z,35.30
2019-04-16T16:51:18.652Z,35.32
2019-04-16T16:53:53.842Z,35.39
2019-04-16T16:56:26.846Z,35.49
2019-04-16T16:59:08.241Z,35.57
2019-04-16T17:01:54.527Z,35.69
2019-04-16T17:04:28.458Z,35.77
2019-04-16T17:06:56.030Z,35.87
2019-04-16T17:09:30.204Z,36.02
2019-04-16T17:11:59.039Z,36.14
2019-04-16T17:14:27.848Z,36.25
2019-04-16T17:16:55.566Z,36.41
2019-04-16T17:19:24.260Z,36.52
2019-04-16T17:21:51.793Z,36.63
2019-04-16T17:24:19.196Z,36.75
2019-04-16T17:26:49.927Z,36.83
2019-04-16T17:29:16.619Z,36.91
2019-04-16T17:31:44.171Z,37.03
2019-04-16T17:34:13.712Z,37.16
2019-04-16T17:36:41.325Z,37.29
2019-04-16T17:39:10.731Z,37.45
2019-04-16T17:41:48.114Z,37.63
2019-04-16T17:44:34.112Z,37.77
2019-04-16T17:47:31.977Z,37.91
2019-04-16T17:50:06.995Z,38.00
2019-04-16T17:52:40.672Z,38.10
2019-04-16T17:55:34.061Z,38.22
2019-04-16T17:58:19.896Z,38.33
2019-04-16T18:01:17.804Z,38.38
2019-04-16T18:04:03.114Z,38.46
2019-04-16T18:06:53.129Z,38.52
2019-04-16T18:09:29.243Z,38.65
2019-04-16T18:12:16.938Z,38.73
2019-04-16T18:15:08.859Z,38.87
2019-04-16T18:17:47.240Z,38.94
2019-04-16T18:20:27.484Z,39.05
2019-04-16T18:23:02.050Z,39.17
2019-04-16T18:26:01.394Z,39.20
2019-04-16T18:28:34.172Z,39.28
2019-04-16T18:31:24.295Z,39.32
2019-04-16T18:33:56.357Z,39.43
2019-04-16T18:36:33.859Z,39.52
2019-04-16T18:39:27.188Z,39.64
2019-04-16T18:42:07.781Z,39.75
2019-04-16T18:44:56.291Z,39.82
2019-04-16T18:48:03.015Z,39.90
2019-04-16T18:50:27.740Z,40.01
2019-04-16T18:52:53.571Z,40.10
2019-04-16T18:55:21.067Z,40.24
2019-04-16T18:57:48.836Z,40.38
2019-04-16T19:00:35.776Z,40.60
2019-04-16T19:03:03.798Z,40.76
2019-04-16T19:05:31.901Z,40.88
2019-04-16T19:08:00.849Z,41.07
2019-04-16T19:10:28.781Z,41.20
2019-04-16T19:12:56.571Z,41.31
2019-04-16T19:15:24.124Z,41.41
2019-04-16T19:17:52.495Z,41.53
2019-04-16T19:20:20.025Z,41.61
2019-04-16T19:22:49.775Z,41.72
2019-04-16T19:25:17.715Z,41.79
2019-04-16T19:27:48.762Z,41.92
2019-04-16T19:30:14.775Z,42.07
2019-04-16T19:32:42.257Z,42.20
2019-04-16T19:35:16.503Z,42.31
2019-04-16T19:37:40.159Z,42.41
2019-04-16T19:40:07.964Z,42.53
2019-04-16T19:42:35.516Z,42.66
2019-04-16T19:45:03.241Z,42.75
2019-04-16T19:47:35.169Z,42.79
2019-04-16T19:50:01.938Z,42.88
2019-04-16T19:52:29.590Z,43.01
2019-04-16T19:54:57.279Z,43.05
2019-04-16T19:57:25.491Z,43.17
2019-04-16T19:59:53.142Z,43.25
2019-04-16T20:02:20.804Z,43.32
2019-04-16T20:04:50.894Z,43.41
2019-04-16T20:07:18.595Z,43.47
2019-04-16T20:09:46.432Z,43.54
2019-04-16T20:12:13.790Z,43.60
2019-04-16T20:14:41.264Z,43.71
2019-04-16T20:17:08.880Z,43.79
2019-04-16T20:19:55.681Z,43.87
2019-04-16T20:22:23.321Z,43.93
2019-04-16T20:24:50.724Z,43.96
2019-04-16T20:27:19.709Z,44.09
2019-04-16T20:29:48.533Z,44.22
2019-04-16T20:32:16.002Z,44.34
2019-04-16T20:34:45.257Z,44.44
2019-04-16T20:37:12.989Z,44.54
2019-04-16T20:39:41.079Z,44.63
2019-04-16T20:42:08.407Z,44.71
2019-04-16T20:44:36.238Z,44.81
2019-04-16T20:47:07.988Z,44.86
2019-04-16T20:49:33.757Z,44.94
2019-04-16T20:52:02.341Z,44.99
2019-04-16T20:54:31.643Z,45.08
2019-04-16T20:56:59.226Z,45.14
2019-04-16T20:59:26.762Z,45.23
2019-04-16T21:01:54.221Z,45.35
2019-04-16T21:04:21.934Z,45.43
2019-04-16T21:06:49.647Z,45.48
2019-04-16T21:09:17.192Z,45.56
2019-04-16T21:11:44.656Z,45.62
2019-04-16T21:14:12.084Z,45.70
2019-04-16T21:16:39.550Z,45.74
2019-04-16T21:19:21.599Z,45.83
2019-04-16T21:21:38.188Z,45.90
2019-04-16T21:24:07.793Z,45.95
2019-04-16T21:26:35.273Z,46.03
2019-04-16T21:29:08.219Z,46.07
2019-04-16T21:31:42.290Z,46.13
2019-04-16T21:34:38.921Z,46.18
2019-04-16T21:37:17.263Z,46.26
2019-04-16T21:39:52.126Z,46.30
2019-04-16T21:42:22.633Z,46.35
2019-04-16T21:44:50.148Z,46.41
2019-04-16T21:47:23.131Z,46.48
2019-04-16T21:49:47.543Z,46.51
2019-04-16T21:52:15.339Z,46.60
2019-04-16T21:54:43.077Z,46.71
2019-04-16T21:57:13.527Z,46.77
2019-04-16T21:59:40.267Z,46.84
2019-04-16T22:02:15.252Z,46.90
2019-04-16T22:28:11.024Z,47.12
2019-04-16T22:30:35.149Z,47.22
2019-04-16T22:33:06.389Z,47.37
2019-04-16T22:35:32.236Z,47.50
2019-04-16T22:38:00.089Z,47.57
2019-04-16T22:40:47.481Z,47.64
2019-04-16T22:43:43.421Z,47.72
2019-04-16T22:46:33.612Z,47.75
2019-04-16T22:49:01.207Z,47.80
2019-04-16T22:51:28.761Z,47.86
2019-04-16T22:53:56.569Z,47.98
2019-04-16T22:56:33.287Z,48.09
2019-04-16T22:59:00.668Z,48.13
2019-04-16T23:01:30.481Z,48.17
2019-04-16T23:03:58.440Z,48.26
2019-04-16T23:06:25.922Z,48.31
2019-04-16T23:08:53.290Z,48.38
2019-04-16T23:11:23.660Z,48.45
2019-04-16T23:59:51.255Z,49.10
